Time;durP1;ratioP1;P1;durP2;ratioP2;P2;SDS_P1;SDS_P2;PMS_P1;PMS_P2;Temp;Humidity;BMP_temperature;BMP_pressure;BME280_temperature;BME280_humidity;BME280_pressure;Samples;Min_cycle;Max_cycle;Signal;HPM_P1;HPM_P2
2023/04/06 00:00:53;;;;;;;15.17;7.63;;;;;;;-144.73;81.93;54300.97;5014266;28;20439;-68
2023/04/06 00:03:19;;;;;;;18.63;7.77;;;;;;;-144.73;81.81;54296.88;5013352;28;20065;-69
2023/04/06 00:05:44;;;;;;;13.07;7.00;;;;;;;-144.73;81.33;54300.97;5011339;28;20048;-68
2023/04/06 00:08:10;;;;;;;14.77;7.40;;;;;;;-144.73;81.11;54327.66;5014609;28;20026;-69
2023/04/06 00:10:35;;;;;;;12.90;7.20;;;;;;;-144.73;81.73;54292.75;5014940;28;20045;-69
2023/04/06 00:13:01;;;;;;;14.47;7.73;;;;;;;-144.73;81.71;54303.03;5018902;28;20033;-69
2023/04/06 00:15:26;;;;;;;16.30;7.47;;;;;;;-144.73;81.61;54337.91;5020610;28;20032;-68
2023/04/06 00:17:52;;;;;;;15.13;7.13;;;;;;;-144.73;81.31;54335.88;5012383;28;20080;-69
2023/04/06 00:20:18;;;;;;;15.23;7.00;;;;;;;-144.73;82.18;54309.19;5013463;28;21032;-69
2023/04/06 00:22:43;;;;;;;17.07;7.87;;;;;;;-144.73;83.81;54288.66;5021957;28;20037;-69
2023/04/06 00:25:12;;;;;;;14.90;7.47;;;;;;;-144.73;83.33;54313.28;5016628;28;20023;-69
2023/04/06 00:27:38;;;;;;;19.97;7.63;;;;;;;-144.73;82.59;54286.59;5025411;28;20033;-69
2023/04/06 00:30:05;;;;;;;18.73;8.57;;;;;;;-144.73;82.52;54305.06;5017839;28;20041;-68
2023/04/06 00:32:30;;;;;;;17.53;7.50;;;;;;;-144.73;83.33;54325.59;5013607;28;20456;-69
2023/04/06 00:34:56;;;;;;;19.00;7.80;;;;;;;-144.73;83.98;54305.06;5015904;28;20026;-68
2023/04/06 00:37:21;;;;;;;16.30;7.83;;;;;;;-144.73;84.43;54288.66;5012063;28;20407;-69
2023/04/06 00:39:47;;;;;;;19.90;8.00;;;;;;;-144.73;84.55;54296.88;5025890;28;20024;-68
2023/04/06 00:42:13;;;;;;;14.60;6.83;;;;;;;-144.73;85.06;54288.66;5012626;28;20060;-69
2023/04/06 00:44:42;;;;;;;13.73;7.10;;;;;;;-144.73;85.23;54288.66;5018707;28;20393;-69
2023/04/06 00:47:08;;;;;;;18.80;7.20;;;;;;;-144.73;84.51;54292.75;5030346;28;20108;-68
2023/04/06 00:49:34;;;;;;;17.50;6.10;;;;;;;-144.73;84.88;54309.19;5023533;28;20220;-68
2023/04/06 00:52:01;;;;;;;16.37;7.23;;;;;;;-144.73;85.00;54325.59;5022333;28;20029;-68
2023/04/06 00:54:26;;;;;;;16.13;6.43;;;;;;;-144.73;84.33;54288.66;5013063;28;20026;-69
2023/04/06 00:56:52;;;;;;;17.50;6.97;;;;;;;-144.73;84.58;54305.06;5012892;28;20061;-69
2023/04/06 00:59:17;;;;;;;15.23;7.27;;;;;;;-144.73;85.35;54284.56;5019303;28;20065;-69
2023/04/06 01:01:43;;;;;;;19.23;7.70;;;;;;;-144.73;85.36;54313.28;5012666;28;20116;-68
2023/04/06 01:04:08;;;;;;;14.27;7.03;;;;;;;-144.73;85.23;54329.72;5017384;28;20083;-68
2023/04/06 01:06:34;;;;;;;16.83;6.93;;;;;;;-144.73;84.31;54288.66;5018579;28;20028;-68
2023/04/06 01:08:59;;;;;;;16.57;7.50;;;;;;;-144.73;84.13;54300.97;5012272;28;20098;-69
2023/04/06 01:11:25;;;;;;;13.53;6.60;;;;;;;-144.73;84.17;54296.88;5023386;28;20041;-68
2023/04/06 01:13:51;;;;;;;12.50;6.47;;;;;;;-144.73;84.63;54286.59;5022450;28;20038;-69
2023/04/06 01:16:16;;;;;;;15.43;6.73;;;;;;;-144.73;84.55;54296.88;5021779;28;20029;-68
2023/04/06 01:18:42;;;;;;;13.73;6.07;;;;;;;-144.73;84.16;54321.50;5018117;28;20046;-69
2023/04/06 01:21:08;;;;;;;21.27;7.20;;;;;;;-144.73;83.86;54321.50;5008639;28;20034;-68
2023/04/06 01:23:34;;;;;;;18.97;7.30;;;;;;;-144.73;84.17;54296.88;5012199;28;20045;-68
2023/04/06 01:26:00;;;;;;;12.73;7.10;;;;;;;-144.73;84.05;54259.91;5009973;28;20025;-68
2023/04/06 01:28:25;;;;;;;16.20;7.07;;;;;;;-144.73;85.11;54280.44;5011326;28;20030;-69
2023/04/06 01:30:51;;;;;;;21.23;7.93;;;;;;;-144.73;85.33;54317.38;5016896;28;20046;-69
2023/04/06 01:33:16;;;;;;;12.97;6.87;;;;;;;-144.73;86.26;54342.03;5021359;28;20121;-69
2023/04/06 01:35:41;;;;;;;15.20;7.33;;;;;;;-144.73;86.96;54296.88;5017003;28;20137;-68
2023/04/06 01:38:07;;;;;;;14.33;7.87;;;;;;;-144.73;87.81;54315.34;5013032;28;20037;-69
2023/04/06 01:40:32;;;;;;;11.27;7.13;;;;;;;-144.73;87.65;54292.75;5014429;28;20034;-68
2023/04/06 01:42:57;;;;;;;15.43;6.20;;;;;;;-144.73;87.88;54284.56;5013473;28;20117;-69
2023/04/06 01:45:23;;;;;;;15.30;7.40;;;;;;;-144.73;87.58;54305.06;5018850;28;20101;-69
2023/04/06 01:47:48;;;;;;;18.07;7.50;;;;;;;-144.73;87.40;54292.75;5017653;28;20121;-69
2023/04/06 01:50:14;;;;;;;17.70;7.57;;;;;;;-144.73;87.19;54311.22;5018570;28;20064;-69
2023/04/06 01:52:40;;;;;;;20.63;7.47;;;;;;;-144.73;87.53;54300.97;5013293;28;20522;-69
2023/04/06 01:55:06;;;;;;;20.10;8.13;;;;;;;-144.73;87.83;54288.66;5020183;28;20017;-69
2023/04/06 01:57:32;;;;;;;16.10;6.90;;;;;;;-144.73;87.67;54292.75;5017690;28;20061;-69
2023/04/06 01:59:57;;;;;;;16.20;6.87;;;;;;;-144.73;88.59;54276.34;5020259;28;20057;-69
2023/04/06 02:02:22;;;;;;;17.90;6.97;;;;;;;-144.73;89.38;54315.34;5021668;28;20052;-69
2023/04/06 02:04:48;;;;;;;13.47;6.83;;;;;;;-144.73;89.56;54313.28;5021703;28;20021;-69
2023/04/06 02:07:13;;;;;;;17.23;7.67;;;;;;;-144.73;89.16;54309.19;5012136;28;20029;-69
2023/04/06 02:09:38;;;;;;;16.30;6.93;;;;;;;-144.73;89.02;54309.19;5011961;28;20076;-69
2023/04/06 02:12:04;;;;;;;15.63;7.43;;;;;;;-144.73;87.90;54282.50;5010157;28;20040;-69
2023/04/06 02:14:30;;;;;;;12.93;7.00;;;;;;;-144.73;87.56;54317.38;5017999;28;20037;-69
2023/04/06 02:16:55;;;;;;;13.30;7.10;;;;;;;-144.73;86.86;54296.88;5019117;28;20079;-69
2023/04/06 02:19:20;;;;;;;19.80;7.03;;;;;;;-144.73;86.78;54280.44;5011708;28;20084;-69
2023/04/06 02:21:46;;;;;;;14.13;6.87;;;;;;;-144.73;86.89;54300.97;5021087;28;20090;-69
2023/04/06 02:24:11;;;;;;;10.77;6.33;;;;;;;-144.73;87.07;54284.56;5020512;28;20149;-69
2023/04/06 02:26:36;;;;;;;16.37;7.47;;;;;;;-144.73;87.08;54300.97;5011672;28;20171;-69
2023/04/06 02:29:02;;;;;;;15.70;6.07;;;;;;;-144.73;86.62;54317.38;5015666;28;20034;-69
2023/04/06 02:31:27;;;;;;;14.10;7.30;;;;;;;-144.73;87.05;54280.44;5013382;28;20040;-69
2023/04/06 02:33:53;;;;;;;14.67;6.70;;;;;;;-144.73;87.54;54300.97;5013065;28;20554;-69
2023/04/06 02:36:18;;;;;;;14.20;7.60;;;;;;;-144.73;87.70;54300.97;5018525;28;20040;-69
2023/04/06 02:38:43;;;;;;;19.90;7.43;;;;;;;-144.73;88.21;54313.28;5017410;28;20040;-69
2023/04/06 02:41:09;;;;;;;20.37;6.90;;;;;;;-144.73;87.99;54276.34;5019283;28;20032;-69
2023/04/06 02:43:34;;;;;;;18.13;7.77;;;;;;;-144.73;87.96;54296.88;5016913;28;20033;-69
2023/04/06 02:46:00;;;;;;;13.87;6.13;;;;;;;-144.73;87.90;54321.50;5011816;28;20029;-69
2023/04/06 02:48:25;;;;;;;19.03;6.80;;;;;;;-144.73;87.65;54284.56;5020352;28;20034;-69
2023/04/06 02:50:50;;;;;;;20.63;8.23;;;;;;;-144.73;87.87;54325.59;5018781;28;20053;-69
2023/04/06 02:53:16;;;;;;;13.13;7.00;;;;;;;-144.73;88.40;54288.66;5011514;28;20104;-69
2023/04/06 02:55:41;;;;;;;16.80;7.77;;;;;;;-144.73;88.40;54309.19;5027542;28;20126;-69
2023/04/06 02:58:06;;;;;;;13.67;7.40;;;;;;;-144.73;88.26;54296.88;5008843;28;20091;-69
2023/04/06 03:00:32;;;;;;;15.27;8.00;;;;;;;-144.73;88.09;54311.22;5015766;28;20104;-69
2023/04/06 03:02:57;;;;;;;15.73;7.40;;;;;;;-144.73;87.99;54296.88;5014408;28;20165;-69
2023/04/06 03:05:23;;;;;;;24.60;7.50;;;;;;;-144.73;88.57;54284.56;5024716;28;20033;-69
2023/04/06 03:07:48;;;;;;;16.47;8.50;;;;;;;-144.73;89.74;54346.13;5020954;28;20041;-69
2023/04/06 03:10:13;;;;;;;25.43;8.97;;;;;;;-144.73;90.22;54292.75;5013443;28;20041;-69
2023/04/06 03:12:39;;;;;;;29.07;11.77;;;;;;;-144.73;91.06;54342.03;5016483;28;20041;-68
2023/04/06 03:15:05;;;;;;;24.97;9.67;;;;;;;-144.73;92.33;54309.19;5009458;28;20045;-68
2023/04/06 03:17:30;;;;;;;25.80;9.83;;;;;;;-144.73;92.63;54337.91;5021600;28;20030;-69
2023/04/06 03:19:55;;;;;;;24.47;9.00;;;;;;;-144.73;92.86;54288.66;5013025;28;20116;-69
2023/04/06 03:22:20;;;;;;;19.10;8.53;;;;;;;-144.73;92.64;54284.56;5021116;28;20475;-69
2023/04/06 03:24:46;;;;;;;22.93;9.07;;;;;;;-144.73;92.59;54313.28;5022078;28;20033;-69
2023/04/06 03:27:11;;;;;;;17.37;8.17;;;;;;;-144.73;92.83;54325.59;5012332;28;20026;-69
2023/04/06 03:29:36;;;;;;;20.23;9.63;;;;;;;-144.73;93.34;54315.34;5022422;28;20034;-69
2023/04/06 03:32:02;;;;;;;19.60;8.30;;;;;;;-144.73;94.34;54321.50;5029832;28;20435;-69
2023/04/06 03:34:27;;;;;;;13.67;7.53;;;;;;;-144.73;94.26;54309.19;5019511;28;20458;-69
2023/04/06 03:36:53;;;;;;;24.33;8.63;;;;;;;-144.73;94.25;54321.50;5016917;28;20033;-69
2023/04/06 03:39:18;;;;;;;24.90;9.00;;;;;;;-144.73;93.60;54305.06;5018552;28;20041;-69
2023/04/06 03:41:44;;;;;;;19.73;7.90;;;;;;;-144.73;92.13;54255.81;5016376;28;20064;-68
2023/04/06 03:44:10;;;;;;;19.53;9.20;;;;;;;-144.73;92.24;54303.03;5013510;28;20041;-69
2023/04/06 03:46:35;;;;;;;16.50;8.07;;;;;;;-144.73;92.33;54288.66;5015372;28;20025;-69
2023/04/06 03:49:00;;;;;;;17.63;7.77;;;;;;;-144.73;91.48;54305.06;5020161;28;20041;-69
2023/04/06 03:51:27;;;;;;;14.70;9.03;;;;;;;-144.73;91.68;54288.66;5019884;28;20079;-69
2023/04/06 03:53:53;;;;;;;24.07;8.70;;;;;;;-144.73;90.79;54282.50;5016614;28;20132;-69
2023/04/06 03:56:18;;;;;;;20.60;8.67;;;;;;;-144.73;90.61;54323.53;5015705;28;20044;-69
2023/04/06 03:58:45;;;;;;;26.17;8.73;;;;;;;-144.73;90.75;54276.34;5025178;28;20036;-69
2023/04/06 04:01:10;;;;;;;19.00;8.60;;;;;;;-144.73;91.29;54276.34;5010533;28;20052;-70
2023/04/06 04:03:36;;;;;;;20.60;9.77;;;;;;;-144.73;91.98;54325.59;5018975;28;20041;-69
2023/04/06 04:06:01;;;;;;;18.87;8.57;;;;;;;-144.73;91.91;54319.44;5013271;28;20065;-69
2023/04/06 04:08:27;;;;;;;19.70;8.33;;;;;;;-144.73;91.53;54337.91;5017528;28;20030;-69
2023/04/06 04:10:52;;;;;;;22.33;9.10;;;;;;;-144.73;91.65;54321.50;5015428;28;20091;-69
2023/04/06 04:13:18;;;;;;;16.63;8.43;;;;;;;-144.73;91.14;54321.50;5015268;28;20030;-69
2023/04/06 04:15:43;;;;;;;17.63;8.70;;;;;;;-144.73;91.19;54333.81;5019656;28;20033;-69
2023/04/06 04:18:09;;;;;;;19.27;9.33;;;;;;;-144.73;91.32;54362.53;5006810;28;20026;-69
2023/04/06 04:20:34;;;;;;;18.60;9.07;;;;;;;-144.73;90.57;54333.81;5009521;28;20061;-69
2023/04/06 04:22:59;;;;;;;14.20;8.53;;;;;;;-144.73;90.45;54321.50;5008180;28;20125;-69
2023/04/06 04:25:25;;;;;;;17.83;9.23;;;;;;;-144.73;90.73;54331.75;5008379;28;20030;-69
2023/04/06 04:27:50;;;;;;;15.07;8.30;;;;;;;-144.73;90.29;54309.19;5013297;28;20050;-69
2023/04/06 04:30:16;;;;;;;23.57;8.70;;;;;;;-144.73;90.75;54329.72;5015183;28;20029;-69
2023/04/06 04:32:41;;;;;;;19.57;8.33;;;;;;;-144.73;91.62;54309.19;5008795;28;20037;-69
2023/04/06 04:35:07;;;;;;;22.73;8.43;;;;;;;-144.73;91.45;54296.88;5017449;28;20026;-69
2023/04/06 04:37:34;;;;;;;26.40;10.00;;;;;;;-144.73;91.57;54313.28;5012798;28;20045;-69
2023/04/06 04:39:59;;;;;;;19.80;8.97;;;;;;;-144.73;91.85;54329.72;5008525;28;20018;-69
2023/04/06 04:42:28;;;;;;;23.83;9.20;;;;;;;-144.73;91.90;54309.19;5008488;28;20401;-69
2023/04/06 04:44:54;;;;;;;18.27;9.07;;;;;;;-144.73;92.29;54311.22;5007448;28;20026;-69
2023/04/06 04:47:19;;;;;;;22.97;9.33;;;;;;;-144.73;92.68;54300.97;5007710;28;20519;-69
2023/04/06 04:49:44;;;;;;;34.17;9.97;;;;;;;-144.73;93.62;54329.72;5018949;28;20025;-69
2023/04/06 04:52:10;;;;;;;17.50;8.70;;;;;;;-144.73;93.57;54346.13;5009657;28;20026;-69
2023/04/06 04:54:35;;;;;;;23.07;9.13;;;;;;;-144.73;94.30;54313.28;5016556;28;20044;-69
2023/04/06 04:57:00;;;;;;;26.00;9.60;;;;;;;-144.73;94.14;54309.19;5017004;28;20021;-69
2023/04/06 04:59:26;;;;;;;31.00;10.17;;;;;;;-144.73;94.02;54337.91;5017396;28;20030;-69
2023/04/06 05:01:51;;;;;;;20.20;10.23;;;;;;;-144.73;93.59;54276.34;5024228;28;20556;-69
2023/04/06 05:04:17;;;;;;;20.43;8.83;;;;;;;-144.73;94.13;54300.97;5021011;28;20125;-69
2023/04/06 05:06:42;;;;;;;19.50;10.13;;;;;;;-144.73;93.60;54305.06;5022668;28;20104;-69
2023/04/06 05:09:07;;;;;;;21.87;9.17;;;;;;;-144.73;93.47;54354.34;5011642;28;20026;-69
2023/04/06 05:11:33;;;;;;;19.60;9.33;;;;;;;-144.73;93.19;54331.75;5011319;28;20034;-69
2023/04/06 05:13:59;;;;;;;19.40;10.00;;;;;;;-144.73;92.61;54317.38;5012532;28;20082;-69
2023/04/06 05:16:24;;;;;;;28.67;10.10;;;;;;;-144.73;92.63;54296.88;5013318;28;20032;-69
2023/04/06 05:18:50;;;;;;;21.63;9.80;;;;;;;-144.73;92.51;54313.28;5018380;28;20030;-69
2023/04/06 05:21:15;;;;;;;24.80;9.57;;;;;;;-144.73;93.07;54313.28;5020272;28;20026;-69
2023/04/06 05:23:40;;;;;;;22.30;9.67;;;;;;;-144.73;93.06;54317.38;5017322;28;20037;-69
2023/04/06 05:26:06;;;;;;;24.83;9.27;;;;;;;-144.73;93.42;54325.59;5011145;28;20028;-70
2023/04/06 05:28:35;;;;;;;28.03;11.27;;;;;;;-144.73;94.14;54319.44;5011322;28;20111;-69
2023/04/06 05:31:01;;;;;;;22.03;11.50;;;;;;;-144.73;95.57;54307.13;5018362;28;20484;-70
2023/04/06 05:33:26;;;;;;;25.37;11.33;;;;;;;-144.73;95.48;54346.13;5013214;28;20034;-69
2023/04/06 05:35:51;;;;;;;25.57;10.23;;;;;;;-144.73;95.24;54337.91;5020500;28;20032;-69
2023/04/06 05:38:17;;;;;;;22.93;10.70;;;;;;;-144.73;94.45;54292.75;5017409;28;20025;-69
2023/04/06 05:40:42;;;;;;;26.17;10.90;;;;;;;-144.73;93.70;54309.19;5011268;28;20245;-69
2023/04/06 05:43:08;;;;;;;24.40;10.73;;;;;;;-144.73;93.75;54317.38;5023663;28;20037;-69
2023/04/06 05:45:33;;;;;;;31.60;11.13;;;;;;;-144.73;94.15;54292.75;5017777;28;20030;-69
2023/04/06 05:47:58;;;;;;;23.33;9.57;;;;;;;-144.73;94.66;54309.19;5021734;28;20117;-69
2023/04/06 05:50:24;;;;;;;24.90;10.93;;;;;;;-144.73;95.04;54342.03;5017731;28;20030;-71
2023/04/06 05:52:49;;;;;;;27.53;10.93;;;;;;;-144.73;94.64;54333.81;5017652;28;20037;-69
2023/04/06 05:55:14;;;;;;;26.27;10.63;;;;;;;-144.73;93.64;54309.19;5021464;28;20026;-69
2023/04/06 05:57:40;;;;;;;17.97;10.00;;;;;;;-144.73;94.01;54259.91;5024308;28;20061;-69
2023/04/06 06:00:09;;;;;;;25.77;11.57;;;;;;;-144.73;93.53;54325.59;5020707;28;20030;-69
2023/04/06 06:02:35;;;;;;;29.53;12.07;;;;;;;-144.73;93.41;54354.34;5012043;28;20152;-70
2023/04/06 06:05:00;;;;;;;43.70;12.13;;;;;;;-144.73;94.12;54309.19;5016011;28;20031;-70
2023/04/06 06:07:26;;;;;;;21.70;11.13;;;;;;;-144.73;93.81;54313.28;5017767;28;20022;-70
2023/04/06 06:09:51;;;;;;;26.23;11.60;;;;;;;-144.73;93.47;54292.75;5014603;28;20042;-70
2023/04/06 06:12:16;;;;;;;20.60;10.60;;;;;;;-144.73;92.97;54280.44;5018436;28;20088;-70
2023/04/06 06:14:42;;;;;;;26.77;11.43;;;;;;;-144.73;93.11;54284.56;5018450;28;20025;-70
2023/04/06 06:17:08;;;;;;;21.33;11.00;;;;;;;-144.73;92.10;54309.19;5019248;28;20029;-70
2023/04/06 06:19:33;;;;;;;26.90;11.83;;;;;;;-144.73;91.51;54342.03;5023269;28;20034;-70
2023/04/06 06:22:01;;;;;;;23.60;12.07;;;;;;;-144.73;91.41;54325.59;5015801;28;20029;-70
2023/04/06 06:24:27;;;;;;;30.97;12.27;;;;;;;-144.73;90.42;54333.81;5023098;28;20385;-70
2023/04/06 06:26:52;;;;;;;32.37;12.37;;;;;;;-144.73;90.25;54321.50;5019257;28;20041;-70
2023/04/06 06:29:18;;;;;;;27.90;12.33;;;;;;;-144.73;89.29;54309.19;5014016;28;20547;-70
2023/04/06 06:31:43;;;;;;;33.87;12.30;;;;;;;-144.73;88.30;54309.19;5015766;28;20040;-70
2023/04/06 06:34:10;;;;;;;30.00;12.13;;;;;;;-144.73;87.38;54331.75;5017115;28;20044;-70
2023/04/06 06:36:35;;;;;;;24.40;12.00;;;;;;;-144.73;86.78;54346.13;5011582;28;20034;-70
2023/04/06 06:39:03;;;;;;;31.23;11.63;;;;;;;-144.73;85.73;54325.59;5017158;28;20026;-70
2023/04/06 06:41:28;;;;;;;28.30;11.73;;;;;;;-144.73;84.99;54317.38;5015299;28;20045;-70
2023/04/06 06:43:53;;;;;;;24.08;10.93;;;;;;;-144.73;84.82;54313.28;5016377;28;20073;-70
2023/04/06 06:46:20;;;;;;;25.47;11.13;;;;;;;-144.73;83.92;54342.03;5016863;28;20116;-69
2023/04/06 06:48:45;;;;;;;32.03;11.47;;;;;;;-144.73;82.45;54346.13;5011709;28;20030;-68
2023/04/06 06:51:11;;;;;;;28.97;10.43;;;;;;;-144.73;81.68;54321.50;5013067;28;20040;-70
2023/04/06 06:53:37;;;;;;;16.58;8.50;;;;;;;-144.73;81.11;54311.22;5024652;28;20507;-69
2023/04/06 06:56:02;;;;;;;17.95;9.60;;;;;;;-144.73;80.29;54362.53;5024014;28;20021;-69
2023/04/06 06:58:27;;;;;;;17.67;9.38;;;;;;;-144.73;79.79;54331.75;5017623;28;20037;-69
2023/04/06 07:00:57;;;;;;;20.17;10.18;;;;;;;-144.73;78.83;54333.81;5016222;28;20121;-70
2023/04/06 07:03:22;;;;;;;19.55;9.77;;;;;;;-144.73;77.92;54317.38;5018279;28;20163;-69
2023/04/06 07:05:52;;;;;;;18.45;9.13;;;;;;;-144.73;78.02;54313.28;5020881;28;20096;-70
2023/04/06 07:08:19;;;;;;;22.42;8.57;;;;;;;-144.73;77.78;54313.28;5019973;28;20034;-69
2023/04/06 07:10:45;;;;;;;16.13;9.00;;;;;;;-144.73;77.17;54300.97;5021761;28;20029;-69
2023/04/06 07:13:10;;;;;;;38.22;8.82;;;;;;;-144.73;76.46;54309.19;5021165;28;20060;-70
2023/04/06 07:15:36;;;;;;;14.50;8.20;;;;;;;-144.73;75.83;54333.81;5020762;28;20116;-70
2023/04/06 07:18:02;;;;;;;14.25;7.65;;;;;;;-144.73;74.52;54331.75;5011008;28;20034;-69
2023/04/06 07:20:28;;;;;;;18.75;8.07;;;;;;;-144.73;74.49;54358.44;5014512;28;20032;-70
2023/04/06 07:22:53;;;;;;;23.00;8.25;;;;;;;-144.73;74.20;54354.34;5015139;28;20032;-70
2023/04/06 07:25:21;;;;;;;15.75;8.50;;;;;;;-144.73;73.34;54288.66;5016821;28;20574;-70
2023/04/06 07:27:47;;;;;;;21.88;9.25;;;;;;;-144.73;71.94;54294.81;5011704;28;20033;-70
2023/04/06 07:30:13;;;;;;;23.45;8.18;;;;;;;-144.73;71.20;54321.50;5018275;28;20018;-70
2023/04/06 07:32:38;;;;;;;25.90;8.20;;;;;;;-144.73;71.51;54294.81;5016901;28;20139;-71
2023/04/06 07:35:04;;;;;;;19.85;7.45;;;;;;;-144.73;69.01;54317.38;5011303;28;20045;-71
2023/04/06 07:37:30;;;;;;;16.52;8.05;;;;;;;-144.73;67.76;54288.66;5015998;28;20072;-72
2023/04/06 07:39:55;;;;;;;20.58;7.20;;;;;;;-144.73;66.94;54329.72;5020454;28;20029;-71
2023/04/06 07:42:21;;;;;;;21.40;7.70;;;;;;;-144.73;65.19;54325.59;5021308;28;20025;-71
2023/04/06 07:44:48;;;;;;;26.60;7.50;;;;;;;-144.73;65.36;54292.75;5019575;28;20058;-71
2023/04/06 07:47:14;;;;;;;18.42;6.70;;;;;;;-144.73;63.58;54296.88;5017395;28;20464;-71
2023/04/06 07:49:39;;;;;;;13.30;7.03;;;;;;;-144.73;62.12;54296.88;5009369;28;20036;-72
2023/04/06 07:52:05;;;;;;;34.83;8.05;;;;;;;-144.73;60.88;54296.88;5010551;28;20116;-72
2023/04/06 07:54:35;;;;;;;17.45;6.65;;;;;;;-144.73;60.21;54280.44;5018241;28;20033;-72
2023/04/06 07:57:01;;;;;;;13.48;6.60;;;;;;;-144.73;59.64;54317.38;5014675;28;20026;-72
2023/04/06 07:59:27;;;;;;;19.30;6.72;;;;;;;-144.73;58.95;54313.28;5009710;28;20030;-72
2023/04/06 08:01:52;;;;;;;14.40;6.43;;;;;;;-144.73;57.19;54305.06;5013169;28;20558;-71
2023/04/06 08:04:18;;;;;;;14.65;6.78;;;;;;;-144.73;55.22;54296.88;5011917;28;20128;-71
2023/04/06 08:06:43;;;;;;;16.63;5.53;;;;;;;-144.73;53.36;54313.28;5009238;28;20021;-70
2023/04/06 08:09:08;;;;;;;18.92;5.93;;;;;;;-144.73;53.37;54284.56;5022645;28;20028;-71
2023/04/06 08:11:34;;;;;;;14.00;5.25;;;;;;;-144.73;53.36;54329.72;5020624;28;20034;-71
2023/04/06 08:13:59;;;;;;;13.63;5.97;;;;;;;-144.73;53.03;54292.75;5013789;28;20036;-71
2023/04/06 08:16:25;;;;;;;11.23;6.13;;;;;;;-144.73;51.99;54259.91;5019401;28;20021;-71
2023/04/06 08:18:50;;;;;;;10.30;5.68;;;;;;;-144.73;51.94;54319.44;5017967;28;20030;-72
2023/04/06 08:21:16;;;;;;;14.13;6.45;;;;;;;-144.73;51.38;54276.34;5022244;28;20021;-71
2023/04/06 08:23:41;;;;;;;18.10;6.47;;;;;;;-144.73;51.77;54280.44;5023205;28;20081;-71
2023/04/06 08:26:06;;;;;;;19.13;6.40;;;;;;;-144.73;51.18;54292.75;5016145;28;20024;-71
2023/04/06 08:28:34;;;;;;;15.80;6.63;;;;;;;-144.73;50.32;54280.44;5005855;28;20022;-72
2023/04/06 08:31:03;;;;;;;16.63;7.13;;;;;;;-144.73;49.27;54276.34;5017305;28;20459;-71
2023/04/06 08:33:28;;;;;;;12.57;6.00;;;;;;;-144.73;49.17;54321.50;5017136;28;20033;-71
2023/04/06 08:35:54;;;;;;;17.20;7.03;;;;;;;-144.73;48.89;54296.88;5018077;28;20025;-71
2023/04/06 08:38:19;;;;;;;16.77;6.55;;;;;;;-144.73;47.35;54284.56;5017189;28;20034;-71
2023/04/06 08:40:47;;;;;;;13.75;6.07;;;;;;;-144.73;46.65;54309.19;5020046;28;20025;-71
2023/04/06 08:43:14;;;;;;;14.65;6.20;;;;;;;-144.73;46.43;54280.44;5021235;28;20034;-71
2023/04/06 08:45:41;;;;;;;9.57;5.40;;;;;;;-144.73;45.75;54337.91;5016415;28;20033;-70
2023/04/06 08:48:06;;;;;;;16.95;6.40;;;;;;;-144.73;45.31;54329.72;5020900;28;20053;-71
2023/04/06 08:50:33;;;;;;;17.95;5.82;;;;;;;-144.73;44.09;54276.34;5022994;28;20098;-71
2023/04/06 08:52:59;;;;;;;13.55;5.82;;;;;;;-144.73;42.04;54305.06;5023091;28;20034;-72
2023/04/06 08:55:25;;;;;;;11.38;6.00;;;;;;;-144.73;43.08;54321.50;5025059;28;20036;-70
2023/04/06 08:57:53;;;;;;;10.60;5.40;;;;;;;-144.73;42.32;54296.88;5017579;28;20038;-72
2023/04/06 09:00:19;;;;;;;15.50;4.78;;;;;;;-144.73;42.37;54305.06;5025396;28;20091;-70
2023/04/06 09:02:45;;;;;;;9.55;5.15;;;;;;;-144.73;42.43;54276.34;5017487;28;20048;-70
2023/04/06 09:05:11;;;;;;;15.60;5.25;;;;;;;-144.73;41.91;54292.75;5023532;28;20026;-72
2023/04/06 09:07:38;;;;;;;10.55;5.43;;;;;;;-144.73;41.61;54245.56;5021438;28;20080;-72
2023/04/06 09:10:05;;;;;;;14.65;5.85;;;;;;;-144.73;42.49;54276.34;5015136;28;20018;-72
2023/04/06 09:12:31;;;;;;;10.82;4.88;;;;;;;-144.73;41.16;54276.34;5021987;28;20042;-73
2023/04/06 09:14:58;;;;;;;8.75;4.68;;;;;;;-144.73;41.01;54280.44;5025052;28;20075;-72
2023/04/06 09:17:33;;;;;;;13.55;5.22;;;;;;;-144.73;39.96;54296.88;5024419;28;20025;-72
2023/04/06 09:20:00;;;;;;;10.50;5.20;;;;;;;-144.73;39.80;54300.97;5016590;28;20117;-72
2023/04/06 09:22:38;;;;;;;9.68;5.00;;;;;;;-144.73;39.21;54278.41;5020202;28;20029;-72
2023/04/06 09:25:04;;;;;;;14.57;5.10;;;;;;;-144.73;39.00;54276.34;5018510;28;20026;-71
2023/04/06 09:27:35;;;;;;;17.85;5.18;;;;;;;-144.73;38.21;54253.75;5019147;28;20399;-68
2023/04/06 09:30:13;;;;;;;9.90;5.00;;;;;;;-144.73;38.38;54296.88;5025846;28;20024;-68
2023/04/06 09:32:50;;;;;;;15.13;4.20;;;;;;;-144.73;37.89;54309.19;5026068;28;20446;-68
2023/04/06 09:35:16;;;;;;;10.20;4.03;;;;;;;-144.73;37.39;54276.34;5018391;28;20112;-68
2023/04/06 09:37:43;;;;;;;11.00;5.22;;;;;;;-144.73;39.06;54251.72;5016874;28;20033;-68
2023/04/06 09:40:09;;;;;;;9.90;4.35;;;;;;;-144.73;40.00;54284.56;5026598;28;20445;-68
2023/04/06 09:42:35;;;;;;;12.98;4.50;;;;;;;-144.73;39.34;54298.91;5012687;28;20113;-69
2023/04/06 09:45:02;;;;;;;8.38;4.72;;;;;;;-144.73;39.37;54313.28;5029945;28;20021;-69
2023/04/06 09:47:28;;;;;;;12.55;4.85;;;;;;;-144.73;38.99;54292.75;5016514;28;20020;-68
2023/04/06 09:49:58;;;;;;;13.63;5.15;;;;;;;-144.73;38.44;54313.28;5008608;28;20083;-70
2023/04/06 09:52:27;;;;;;;13.38;4.85;;;;;;;-144.73;39.59;54276.34;5023278;28;20142;-67
2023/04/06 09:54:58;;;;;;;12.95;4.50;;;;;;;-144.73;40.30;54292.75;5020298;28;20108;-69
2023/04/06 09:57:41;;;;;;;10.45;5.28;;;;;;;-144.73;40.81;54284.56;5010003;28;20026;-69
2023/04/06 10:00:11;;;;;;;10.95;5.05;;;;;;;-144.73;39.89;54342.03;5011240;28;20017;-69
2023/04/06 10:02:50;;;;;;;11.65;4.20;;;;;;;-144.73;40.16;54350.22;5005921;28;20116;-68
2023/04/06 10:05:37;;;;;;;8.05;5.18;;;;;;;-144.73;39.96;54292.75;5020189;28;20091;-68
2023/04/06 10:08:07;;;;;;;12.95;4.50;;;;;;;-144.73;39.42;54313.28;5015923;28;20037;-69
2023/04/06 10:10:32;;;;;;;9.70;4.75;;;;;;;-144.73;39.05;54268.13;5023136;28;20037;-68
2023/04/06 10:12:58;;;;;;;10.90;4.72;;;;;;;-144.73;38.97;54288.66;5008331;28;20030;-69
2023/04/06 10:15:24;;;;;;;12.60;4.03;;;;;;;-144.73;35.87;54292.75;5008353;28;20029;-70
2023/04/06 10:17:50;;;;;;;11.50;4.60;;;;;;;-144.73;35.52;54292.75;5015224;28;20060;-69
2023/04/06 10:20:23;;;;;;;11.10;4.65;;;;;;;-144.73;35.30;54278.41;5017280;28;20108;-70
2023/04/06 10:23:15;;;;;;;11.50;4.38;;;;;;;-144.73;35.51;54247.59;5008830;28;20061;-69
2023/04/06 10:25:51;;;;;;;;;;;;;;;-144.73;34.67;54284.56;5023198;28;20021;-70
2023/04/06 10:28:19;;;;;;;10.57;3.78;;;;;;;-144.73;34.51;54282.50;5010121;28;19913;-70
2023/04/06 10:30:45;;;;;;;12.15;4.43;;;;;;;-144.73;35.02;54266.06;5014480;28;20037;-69
2023/04/06 10:33:20;;;;;;;7.78;4.15;;;;;;;-144.73;34.81;54276.34;5011458;28;20029;-70
2023/04/06 10:35:46;;;;;;;12.73;4.30;;;;;;;-144.73;34.68;54313.28;5011237;28;20048;-70
2023/04/06 10:38:14;;;;;;;12.93;5.22;;;;;;;-144.73;33.94;54300.97;5014359;28;20029;-70
2023/04/06 10:40:42;;;;;;;10.05;5.53;;;;;;;-144.73;34.27;54276.34;5020405;28;20084;-69
2023/04/06 10:43:26;;;;;;;9.20;4.97;;;;;;;-144.73;34.97;54300.97;5011017;28;20030;-69
2023/04/06 10:45:56;;;;;;;11.35;5.38;;;;;;;-144.73;34.08;54296.88;5010301;28;20549;-69
2023/04/06 10:48:21;;;;;;;10.70;5.30;;;;;;;-144.73;33.33;54300.97;5005901;28;20056;-69
2023/04/06 10:50:49;;;;;;;9.90;5.30;;;;;;;-144.73;33.81;54276.34;5006492;28;20093;-69
2023/04/06 10:53:26;;;;;;;9.77;5.30;;;;;;;-144.73;34.13;54360.50;5004135;28;20038;-70
2023/04/06 10:55:55;;;;;;;9.35;5.25;;;;;;;-144.73;34.05;54276.34;4999780;28;20033;-70
2023/04/06 10:58:24;;;;;;;9.82;5.72;;;;;;;-144.73;33.55;54305.06;5004936;28;20029;-69
2023/04/06 11:00:50;;;;;;;8.73;5.47;;;;;;;-144.73;33.59;54315.34;5006223;28;20104;-70
2023/04/06 11:03:16;;;;;;;11.05;6.00;;;;;;;-144.73;33.67;54280.44;5009201;28;20060;-70
2023/04/06 11:05:46;;;;;;;13.15;6.18;;;;;;;-144.73;33.28;54276.34;5007969;28;20030;-69